Time;durP1;ratioP1;P1;durP2;ratioP2;P2;SDS_P1;SDS_P2;PMS_P1;PMS_P2;Temp;Humidity;BMP_temperature;BMP_pressure;BME280_temperature;BME280_humidity;BME280_pressure;Samples;Min_cycle;Max_cycle;Signal;HPM_P1;HPM_P2
2022/08/15 00:03:47;;;;;;;;;;;;;;;24.37;41.82;94775.84;10344985;28;1973;-54
2022/08/15 00:08:50;;;;;;;;;;;;;;;24.37;41.73;94770.56;10342413;28;1873;-55
2022/08/15 00:13:52;;;;;;;;;;;;;;;24.38;41.55;94766.81;10351059;28;1909;-55
2022/08/15 00:18:52;;;;;;;;;;;;;;;24.37;41.76;94763.38;10340461;28;1935;-55
2022/08/15 00:23:56;;;;;;;;;;;;;;;24.38;41.67;94766.81;10331930;28;1963;-54
2022/08/15 00:28:56;;;;;;;;;;;;;;;24.38;41.63;94764.16;10340519;28;1896;-56
2022/08/15 00:33:58;;;;;;;;;;;;;;;24.39;41.76;94768.34;10342340;28;1904;-51
2022/08/15 00:38:59;;;;;;;;;;;;;;;24.38;41.68;94764.16;10334070;28;2162;-55
2022/08/15 00:44:00;;;;;;;;;;;;;;;24.37;41.54;94766.03;10345223;28;2160;-55
2022/08/15 00:49:01;;;;;;;;;;;;;;;24.39;41.40;94776.31;10337521;28;2030;-56
2022/08/15 00:54:13;;;;;;;;;;;;;;;24.39;41.64;94782.38;10338893;28;1888;-56
2022/08/15 00:59:14;;;;;;;;;;;;;;;24.38;41.46;94782.72;10342362;28;1943;-56
2022/08/15 01:04:14;;;;;;;;;;;;;;;24.40;41.58;94783.16;10341483;28;2106;-56
2022/08/15 01:09:15;;;;;;;;;;;;;;;24.38;41.75;94777.41;10319866;28;1985;-55
2022/08/15 01:14:36;;;;;;;;;;;;;;;24.38;41.76;94766.81;10333415;28;1920;-54
2022/08/15 01:19:40;;;;;;;;;;;;;;;24.38;41.39;94767.56;10358695;28;1922;-55
2022/08/15 01:24:56;;;;;;;;;;;;;;;24.39;41.79;94768.34;10335836;28;2043;-55
2022/08/15 01:30:04;;;;;;;;;;;;;;;24.39;41.71;94768.34;10337573;28;2112;-55
2022/08/15 01:35:24;;;;;;;;;;;;;;;24.39;41.54;94773.66;10330435;28;1950;-55
2022/08/15 01:40:47;;;;;;;;;;;;;;;24.39;41.63;94765.72;10336151;28;2033;-54
2022/08/15 01:45:49;;;;;;;;;;;;;;;24.38;41.42;94762.28;10336120;28;2105;-55
2022/08/15 01:50:56;;;;;;;;;;;;;;;24.39;41.64;94769.16;10325313;28;2039;-54
2022/08/15 01:56:00;;;;;;;;;;;;;;;24.38;41.32;94769.47;10340156;28;2288;-54
2022/08/15 02:01:06;;;;;;;;;;;;;;;24.39;41.53;94765.72;10339921;28;2046;-55
2022/08/15 02:06:09;;;;;;;;;;;;;;;24.38;41.51;94769.47;10341277;28;1954;-56
2022/08/15 02:11:10;;;;;;;;;;;;;;;24.38;41.48;94778.16;10331704;28;1905;-55
2022/08/15 02:16:13;;;;;;;;;;;;;;;24.37;41.49;94781.94;10337550;28;1939;-56
2022/08/15 02:21:13;;;;;;;;;;;;;;;24.39;41.64;94787.69;10340051;28;1996;-54
2022/08/15 02:26:14;;;;;;;;;;;;;;;24.39;41.47;94789.56;10334012;28;2014;-55
2022/08/15 02:31:16;;;;;;;;;;;;;;;24.39;41.44;94789.56;10336546;28;1951;-54
2022/08/15 02:36:17;;;;;;;;;;;;;;;24.39;41.33;94794.84;10318629;28;1907;-55
2022/08/15 02:41:21;;;;;;;;;;;;;;;24.38;41.44;94796.72;10333351;28;2057;-55
2022/08/15 02:46:23;;;;;;;;;;;;;;;24.39;41.53;94794.84;10332876;28;1982;-55
2022/08/15 02:51:24;;;;;;;;;;;;;;;24.39;41.58;94792.19;10336269;28;1992;-56
2022/08/15 02:56:26;;;;;;;;;;;;;;;24.40;41.47;94799.06;10341683;28;1976;-57
2022/08/15 03:01:26;;;;;;;;;;;;;;;24.39;41.48;94792.19;10345859;28;1952;-56
2022/08/15 03:06:27;;;;;;;;;;;;;;;24.39;41.46;94800.16;10339991;28;1955;-55
2022/08/15 03:11:28;;;;;;;;;;;;;;;24.38;41.39;94802.00;10365712;28;2036;-55
2022/08/15 03:16:30;;;;;;;;;;;;;;;24.38;41.32;94795.97;10343756;28;1919;-53
2022/08/15 03:21:31;;;;;;;;;;;;;;;24.39;41.41;94800.16;10343810;28;1940;-52
2022/08/15 03:26:32;;;;;;;;;;;;;;;24.39;41.71;94795.63;10337873;28;1953;-55
2022/08/15 03:31:34;;;;;;;;;;;;;;;24.39;41.44;94805.44;10343276;28;2137;-56
2022/08/15 03:36:36;;;;;;;;;;;;;;;24.39;41.27;94805.44;10340121;28;1963;-56
2022/08/15 03:41:36;;;;;;;;;;;;;;;24.38;41.40;94806.56;10341655;28;1955;-54
2022/08/15 03:46:38;;;;;;;;;;;;;;;24.39;41.44;94818.69;10341910;28;1906;-54
2022/08/15 03:51:40;;;;;;;;;;;;;;;24.38;41.34;94815.25;10336086;28;2054;-55
2022/08/15 03:56:40;;;;;;;;;;;;;;;24.38;41.49;94825.09;10344172;28;1939;-55
2022/08/15 04:01:42;;;;;;;;;;;;;;;24.38;41.46;94831.16;10339133;28;1918;-55
2022/08/15 04:06:42;;;;;;;;;;;;;;;24.38;41.33;94825.84;10340245;28;1992;-54
2022/08/15 04:11:43;;;;;;;;;;;;;;;24.38;41.40;94825.09;10338486;28;1965;-56
2022/08/15 04:16:44;;;;;;;;;;;;;;;24.38;41.42;94835.69;10339684;28;1948;-55
2022/08/15 04:21:45;;;;;;;;;;;;;;;24.39;41.32;94843.31;10344272;28;1948;-55
2022/08/15 04:26:45;;;;;;;;;;;;;;;24.37;41.49;94839.41;10360103;28;2078;-56
2022/08/15 04:31:46;;;;;;;;;;;;;;;24.38;41.32;94846.28;10344120;28;1964;-55
2022/08/15 04:36:47;;;;;;;;;;;;;;;24.38;41.26;94846.28;10346498;28;1960;-54
2022/08/15 04:41:48;;;;;;;;;;;;;;;24.38;41.29;94843.63;10336502;28;1904;-54
2022/08/15 04:46:51;;;;;;;;;;;;;;;24.38;41.27;94841.75;10338233;28;2033;-54
2022/08/15 04:51:51;;;;;;;;;;;;;;;24.39;41.24;94847.81;10340084;28;1860;-56
2022/08/15 04:56:51;;;;;;;;;;;;;;;24.38;41.29;94857.63;10339572;28;2468;-52
2022/08/15 05:01:52;;;;;;;;;;;;;;;24.39;41.21;94863.72;10340827;28;1940;-53
2022/08/15 05:06:52;;;;;;;;;;;;;;;24.38;41.32;94857.63;10338130;28;2018;-55
2022/08/15 05:11:52;;;;;;;;;;;;;;;24.39;41.42;94863.72;10341309;28;2001;-55
2022/08/15 05:16:53;;;;;;;;;;;;;;;24.38;41.35;94862.94;10341803;28;1971;-56
2022/08/15 05:21:53;;;;;;;;;;;;;;;24.39;41.27;94863.72;10339106;28;1947;-54
2022/08/15 05:26:54;;;;;;;;;;;;;;;24.38;41.40;94864.81;10341041;28;1977;-55
2022/08/15 05:31:54;;;;;;;;;;;;;;;24.40;41.39;94865.28;10320245;28;1947;-55
2022/08/15 05:36:56;;;;;;;;;;;;;;;24.39;41.52;94867.16;10338864;28;1900;-55
2022/08/15 05:42:01;;;;;;;;;;;;;;;24.39;41.26;94864.50;10364778;28;1975;-54
2022/08/15 05:47:09;;;;;;;;;;;;;;;24.40;41.07;94873.97;10337517;28;1968;-55
2022/08/15 05:52:13;;;;;;;;;;;;;;;24.39;41.21;94879.59;10321226;28;1961;-54
2022/08/15 05:57:20;;;;;;;;;;;;;;;24.40;41.19;94881.19;10324288;28;2041;-53
2022/08/15 06:02:27;;;;;;;;;;;;;;;24.40;41.19;94878.53;10335248;28;1979;-56
2022/08/15 06:07:27;;;;;;;;;;;;;;;24.40;41.39;94887.22;10333350;28;1949;-55
2022/08/15 06:12:38;;;;;;;;;;;;;;;24.40;41.24;94886.47;10336317;28;1958;-57
2022/08/15 06:17:43;;;;;;;;;;;;;;;24.40;41.10;94881.94;10322028;28;1952;-54
2022/08/15 06:22:43;;;;;;;;;;;;;;;24.40;41.27;94887.22;10339272;28;1983;-55
2022/08/15 06:27:54;;;;;;;;;;;;;;;24.41;41.31;94894.09;10335184;28;1994;-55
2022/08/15 06:32:58;;;;;;;;;;;;;;;24.40;41.10;94897.81;10342987;28;1953;-55
2022/08/15 06:38:05;;;;;;;;;;;;;;;24.40;41.31;94905.78;10331261;28;1890;-52
2022/08/15 06:43:10;;;;;;;;;;;;;;;24.41;41.10;94906.56;10328301;28;2006;-56
2022/08/15 06:48:11;;;;;;;;;;;;;;;24.41;41.34;94910.00;10345427;28;1951;-53
2022/08/15 06:53:15;;;;;;;;;;;;;;;24.41;41.31;94909.22;10367372;28;2001;-54
2022/08/15 06:58:16;;;;;;;;;;;;;;;24.41;41.38;94915.28;10347893;28;1977;-53
2022/08/15 07:03:26;;;;;;;;;;;;;;;24.40;41.46;94918.25;10346602;28;1915;-54
2022/08/15 07:08:33;;;;;;;;;;;;;;;24.42;41.23;94916.06;10348519;28;1831;-54
2022/08/15 07:13:54;;;;;;;;;;;;;;;24.41;41.40;94925.88;10345569;28;1797;-56
2022/08/15 07:18:56;;;;;;;;;;;;;;;24.42;41.70;94911.53;10317728;28;1887;-54
2022/08/15 07:23:58;;;;;;;;;;;;;;;24.41;41.45;94917.16;10343207;28;1891;-55
2022/08/15 07:28:59;;;;;;;;;;;;;;;24.42;41.54;94921.38;10348325;28;1860;-54
2022/08/15 07:34:03;;;;;;;;;;;;;;;24.42;41.32;94921.38;10348649;28;1916;-56
2022/08/15 07:39:22;;;;;;;;;;;;;;;24.42;41.56;94916.81;10340740;28;1754;-55
2022/08/15 07:44:25;;;;;;;;;;;;;;;24.42;41.70;94914.19;10343289;28;1883;-53
2022/08/15 07:49:25;;;;;;;;;;;;;;;24.44;41.71;94924.47;10340493;28;1896;-52
2022/08/15 07:54:26;;;;;;;;;;;;;;;24.43;41.17;94917.63;10344053;28;1816;-55
2022/08/15 07:59:36;;;;;;;;;;;;;;;24.43;41.59;94915.75;10342008;28;1937;-56
2022/08/15 08:04:36;;;;;;;;;;;;;;;24.44;41.58;94914.63;10346827;28;1946;-56
2022/08/15 08:09:47;;;;;;;;;;;;;;;24.44;41.51;94908.59;10342071;28;1865;-57
2022/08/15 08:15:02;;;;;;;;;;;;;;;24.44;41.61;94912.00;10341216;28;1876;-56
2022/08/15 08:20:08;;;;;;;;;;;;;;;24.45;41.35;94920.72;10343934;28;1824;-56
2022/08/15 08:25:10;;;;;;;;;;;;;;;24.45;41.71;94920.72;10342914;28;1950;-55
2022/08/15 08:30:12;;;;;;;;;;;;;;;24.45;41.55;94926.03;10341163;28;1784;-56
2022/08/15 08:35:19;;;;;;;;;;;;;;;24.46;41.64;94917.00;10341509;28;1745;-57
2022/08/15 08:45:50;;;;;;;;;;;;;;;24.46;41.58;94917.00;10342348;28;1906;-54
2022/08/15 08:51:01;;;;;;;;;;;;;;;24.47;41.49;94923.81;10341898;28;1946;-53
2022/08/15 08:56:04;;;;;;;;;;;;;;;24.46;41.61;94917.75;10340397;28;1824;-56
2022/08/15 09:01:05;;;;;;;;;;;;;;;24.46;41.38;94922.28;10318501;28;1906;-55
2022/08/15 09:06:05;;;;;;;;;;;;;;;24.46;41.45;94919.63;10322788;28;1907;-56
2022/08/15 09:11:07;;;;;;;;;;;;;;;24.47;41.50;94921.19;10324187;28;1914;-55
2022/08/15 09:16:09;;;;;;;;;;;;;;;24.47;41.43;94929.91;10320814;28;1895;-55
2022/08/15 09:21:09;;;;;;;;;;;;;;;24.46;41.41;94925.69;10317305;28;1833;-56
2022/08/15 09:26:28;;;;;;;;;;;;;;;24.46;41.46;94928.34;10339702;28;1981;-56
2022/08/15 09:31:30;;;;;;;;;;;;;;;24.47;41.71;94935.22;10340028;28;1971;-54
2022/08/15 09:36:45;;;;;;;;;;;;;;;24.47;41.75;94921.19;10336387;28;1887;-55
2022/08/15 09:41:52;;;;;;;;;;;;;;;24.48;41.57;94914.81;10332211;28;1898;-54
2022/08/15 09:47:13;;;;;;;;;;;;;;;24.48;41.71;94922.75;10359871;28;1940;-56
2022/08/15 09:52:19;;;;;;;;;;;;;;;24.49;41.54;94929.59;10337721;28;1819;-55
2022/08/15 09:57:29;;;;;;;;;;;;;;;24.49;41.66;94927.72;10346214;28;1848;-53
2022/08/15 10:02:32;;;;;;;;;;;;;;;24.49;41.71;94925.06;10341311;28;1856;-56
2022/08/15 10:07:46;;;;;;;;;;;;;;;24.49;41.69;94924.28;10344334;28;1812;-57
2022/08/15 10:13:05;;;;;;;;;;;;;;;24.50;41.71;94924.00;10368256;28;1966;-55
2022/08/15 10:18:08;;;;;;;;;;;;;;;24.51;41.54;94919.44;10350558;28;1840;-55
2022/08/15 10:23:10;;;;;;;;;;;;;;;24.51;41.42;94914.94;10330387;28;1961;-56
2022/08/15 10:28:10;;;;;;;;;;;;;;;24.52;41.53;94919.16;10370466;28;1839;-51
2022/08/15 10:33:30;;;;;;;;;;;;;;;24.52;41.54;94916.50;10345048;28;1863;-54
2022/08/15 10:38:30;;;;;;;;;;;;;;;24.54;41.32;94921.47;10343885;28;1839;-54
2022/08/15 10:43:40;;;;;;;;;;;;;;;24.54;41.54;94921.47;10346524;28;2158;-53
2022/08/15 10:48:43;;;;;;;;;;;;;;;24.54;41.67;94913.53;10340805;28;1859;-55
2022/08/15 10:54:06;;;;;;;;;;;;;;;24.56;41.50;94900.75;10346930;28;1902;-55
2022/08/15 10:59:08;;;;;;;;;;;;;;;24.57;41.42;94896.97;10329904;28;1966;-54
2022/08/15 11:04:13;;;;;;;;;;;;;;;24.57;41.51;94908.34;10337787;28;1916;-55
2022/08/15 11:09:15;;;;;;;;;;;;;;;24.57;41.46;94911.00;10343130;28;1832;-54
2022/08/15 11:14:19;;;;;;;;;;;;;;;24.59;41.19;94905.38;10344500;28;1893;-52
2022/08/15 11:19:28;;;;;;;;;;;;;;;24.59;41.36;94905.38;10343752;28;1833;-49
2022/08/15 11:24:33;;;;;;;;;;;;;;;24.59;41.38;94900.88;10340322;28;2163;-53
2022/08/15 11:29:33;;;;;;;;;;;;;;;24.60;41.53;94893.69;10344345;28;1855;-54
2022/08/15 11:34:35;;;;;;;;;;;;;;;24.61;41.32;94892.59;10342321;28;1844;-56
2022/08/15 11:39:37;;;;;;;;;;;;;;;24.62;41.34;94892.28;10342151;28;1841;-54
2022/08/15 11:44:43;;;;;;;;;;;;;;;24.58;41.67;94874.69;10320994;28;1942;-55
2022/08/15 11:49:50;;;;;;;;;;;;;;;24.62;41.64;94883.56;10320283;28;1745;-55
2022/08/15 11:55:09;;;;;;;;;;;;;;;24.64;41.79;94878.72;10358750;28;1832;-54
2022/08/15 12:00:14;;;;;;;;;;;;;;;24.64;41.96;94871.56;10337153;28;1884;-56
2022/08/15 12:05:16;;;;;;;;;;;;;;;24.64;42.02;94866.25;10341545;28;1882;-58
2022/08/15 12:10:29;;;;;;;;;;;;;;;24.61;42.21;94871.41;10340753;28;1796;-58
2022/08/15 12:15:32;;;;;;;;;;;;;;;24.56;41.66;94855.69;10339650;28;1828;-59
2022/08/15 12:20:47;;;;;;;;;;;;;;;24.56;41.63;94850.41;10340440;28;1898;-57
2022/08/15 12:25:54;;;;;;;;;;;;;;;24.54;41.46;94849.94;10343087;28;1906;-58
2022/08/15 12:31:02;;;;;;;;;;;;;;;24.54;41.53;94852.59;10341719;28;1867;-59
2022/08/15 12:36:02;;;;;;;;;;;;;;;24.52;41.58;94844.97;10339341;28;2150;-58
2022/08/15 12:41:03;;;;;;;;;;;;;;;24.53;41.66;94845.72;10341794;28;1839;-58
2022/08/15 12:46:03;;;;;;;;;;;;;;;24.57;41.57;94833.38;10340215;28;1919;-56
2022/08/15 12:51:04;;;;;;;;;;;;;;;24.58;41.47;94829.66;10340349;28;1951;-55
2022/08/15 12:56:07;;;;;;;;;;;;;;;24.60;41.29;94820.28;10346012;28;1930;-58
2022/08/15 13:01:08;;;;;;;;;;;;;;;24.67;40.76;94809.16;10340301;28;1850;-58
2022/08/15 13:06:14;;;;;;;;;;;;;;;24.65;40.55;94804.19;10337498;28;1952;-58
2022/08/15 13:11:14;;;;;;;;;;;;;;;24.66;40.33;94795.16;10342224;28;1896;-58
2022/08/15 13:16:14;;;;;;;;;;;;;;;24.66;40.38;94786.44;10333620;28;1801;-57
2022/08/15 13:26:36;;;;;;;;;;;;;;;24.74;39.72;94781.09;10331355;28;1899;-58
2022/08/15 13:31:37;;;;;;;;;;;;;;;24.75;39.64;94773.94;10358025;28;1660;-59
2022/08/15 13:36:37;;;;;;;;;;;;;;;24.83;39.53;94765.88;10330012;28;1793;-57
2022/08/15 13:41:38;;;;;;;;;;;;;;;24.77;39.66;94759.25;10335978;28;1793;-58
2022/08/15 13:46:39;;;;;;;;;;;;;;;24.81;38.71;94764.69;10332378;28;1999;-59
2022/08/15 13:51:48;;;;;;;;;;;;;;;24.78;38.78;94757.38;10337875;28;1717;-58
2022/08/15 13:56:48;;;;;;;;;;;;;;;24.78;38.58;94755.50;10330108;28;1836;-59
2022/08/15 14:01:50;;;;;;;;;;;;;;;24.71;38.77;94746.50;10332152;28;1820;-58
2022/08/15 14:06:52;;;;;;;;;;;;;;;24.76;38.31;94743.66;10332977;28;1908;-58
2022/08/15 14:11:53;;;;;;;;;;;;;;;24.68;38.11;94742.63;10331859;28;1745;-57
2022/08/15 14:16:54;;;;;;;;;;;;;;;24.68;38.49;94739.97;10342079;28;1856;-54
2022/08/15 14:21:54;;;;;;;;;;;;;;;24.69;38.78;94736.19;10319352;28;1913;-50
2022/08/15 14:26:54;;;;;;;;;;;;;;;24.72;38.81;94734.78;10337210;28;1900;-49
2022/08/15 14:31:57;;;;;;;;;;;;;;;24.72;39.19;94729.47;10348637;28;1804;-54
2022/08/15 14:36:57;;;;;;;;;;;;;;;24.75;39.31;94728.88;10335872;28;1786;-52
2022/08/15 14:41:58;;;;;;;;;;;;;;;24.78;39.39;94728.22;10339447;28;1875;-56
2022/08/15 14:46:59;;;;;;;;;;;;;;;24.78;39.43;94717.63;10337803;28;1914;-53
2022/08/15 14:51:59;;;;;;;;;;;;;;;24.78;39.62;94718.41;10338330;28;1949;-55
2022/08/15 14:57:00;;;;;;;;;;;;;;;24.77;39.77;94716.81;10346006;28;1841;-52
2022/08/15 15:02:01;;;;;;;;;;;;;;;24.78;39.55;94704.38;10345788;28;1797;-50
2022/08/15 15:07:02;;;;;;;;;;;;;;;24.78;39.75;94713.09;10365326;28;1953;-52
2022/08/15 15:12:02;;;;;;;;;;;;;;;24.78;39.77;94714.97;10343851;28;1884;-49
2022/08/15 15:17:03;;;;;;;;;;;;;;;24.78;40.18;94713.09;10340941;28;1798;-50
2022/08/15 15:22:03;;;;;;;;;;;;;;;24.78;39.97;94713.09;10348642;28;1836;-53
2022/08/15 15:27:04;;;;;;;;;;;;;;;24.79;39.88;94709.31;10342182;28;1950;-53
2022/08/15 15:32:04;;;;;;;;;;;;;;;24.80;39.89;94710.13;10343088;28;2016;-53
2022/08/15 15:37:05;;;;;;;;;;;;;;;24.78;40.27;94713.09;10337172;28;1876;-51
2022/08/15 15:42:05;;;;;;;;;;;;;;;24.78;40.42;94712.31;10342757;28;1839;-55
2022/08/15 15:47:08;;;;;;;;;;;;;;;24.79;40.06;94713.88;10343257;28;1916;-55
2022/08/15 15:52:12;;;;;;;;;;;;;;;24.78;40.24;94705.16;10341878;28;1831;-51
2022/08/15 15:57:13;;;;;;;;;;;;;;;24.80;40.24;94700.28;10337761;28;1657;-53
2022/08/15 16:02:15;;;;;;;;;;;;;;;24.79;40.27;94697.97;10344058;28;1887;-56
2022/08/15 16:07:16;;;;;;;;;;;;;;;24.79;40.42;94704.03;10340726;28;1927;-52
2022/08/15 16:12:19;;;;;;;;;;;;;;;24.78;40.44;94709.66;10340096;28;1792;-52
2022/08/15 16:17:31;;;;;;;;;;;;;;;24.76;40.54;94706.56;10338935;28;1886;-54
2022/08/15 16:22:31;;;;;;;;;;;;;;;24.76;40.40;94709.22;10341286;28;1738;-64
2022/08/15 16:27:32;;;;;;;;;;;;;;;24.78;40.41;94713.09;10343027;28;1942;-71
2022/08/15 16:32:51;;;;;;;;;;;;;;;24.81;40.42;94711.69;10341179;28;1941;-49
2022/08/15 16:37:52;;;;;;;;;;;;;;;24.78;40.71;94717.63;10597388;22;3704;-46
2022/08/15 16:42:57;;;;;;;;;;;;;;;24.78;40.92;94722.91;10335849;28;1946;-43
2022/08/15 16:47:58;;;;;;;;;;;;;;;24.79;40.70;94719.19;10331727;28;2032;-42
2022/08/15 16:53:02;;;;;;;;;;;;;;;24.81;41.12;94722.28;10337223;28;1952;-44
2022/08/15 16:58:14;;;;;;;;;;;;;;;24.82;41.16;94723.81;10340799;28;1797;-45
2022/08/15 17:03:18;;;;;;;;;;;;;;;24.84;41.07;94724.25;10331360;28;1915;-41
2022/08/15 17:08:18;;;;;;;;;;;;;;;24.84;41.21;94729.56;10334807;28;1687;-44
2022/08/15 17:13:31;;;;;;;;;;;;;;;24.84;41.25;94733.00;10328966;28;1920;-44
2022/08/15 17:18:50;;;;;;;;;;;;;;;24.85;41.03;94737.19;10335178;28;1832;-45
2022/08/15 17:24:17;;;;;;;;;;;;;;;24.86;41.12;94751.22;10330675;28;1966;-44
2022/08/15 17:29:20;;;;;;;;;;;;;;;24.86;41.12;94775.06;10321376;28;1747;-43
2022/08/15 17:34:22;;;;;;;;;;;;;;;24.87;41.40;94781.94;10337063;28;1702;-47
2022/08/15 17:39:34;;;;;;;;;;;;;;;24.87;41.07;94779.28;10320088;28;2175;-45
2022/08/15 17:44:36;;;;;;;;;;;;;;;24.88;41.22;94786.13;10318996;28;1895;-45
2022/08/15 17:49:37;;;;;;;;;;;;;;;24.88;40.94;94786.91;10316615;28;1497;-44
2022/08/15 17:54:41;;;;;;;;;;;;;;;24.90;40.92;94813.09;10317662;28;1755;-46
2022/08/15 17:59:50;;;;;;;;;;;;;;;24.90;40.90;94821.06;10335611;28;1427;-43
2022/08/15 18:04:50;;;;;;;;;;;;;;;24.93;40.90;94842.41;10336134;28;1942;-45
2022/08/15 18:09:52;;;;;;;;;;;;;;;24.89;40.83;94853.97;10335731;28;1845;-45
2022/08/15 18:14:53;;;;;;;;;;;;;;;24.91;40.59;94880.94;10339700;28;1590;-44
2022/08/15 18:20:03;;;;;;;;;;;;;;;24.92;40.70;94898.38;10332910;28;1436;-45
2022/08/15 18:25:14;;;;;;;;;;;;;;;24.94;40.61;94917.41;10330588;28;1883;-45
2022/08/15 18:30:24;;;;;;;;;;;;;;;24.93;40.29;94926.47;10345050;28;1550;-45
2022/08/15 18:35:35;;;;;;;;;;;;;;;24.57;38.78;94928.78;10339081;28;1801;-43
2022/08/15 18:45:57;;;;;;;;;;;;;;;24.21;38.71;94964.41;10337737;28;1970;-42
2022/08/15 18:51:00;;;;;;;;;;;;;;;24.05;38.36;94978.47;10338877;28;1848;-43
2022/08/15 18:56:00;;;;;;;;;;;;;;;23.97;38.66;94982.66;10341356;28;1866;-47
2022/08/15 19:01:11;;;;;;;;;;;;;;;23.90;38.40;94989.50;10335810;28;1905;-43
2022/08/15 19:06:40;;;;;;;;;;;;;;;23.83;38.47;95013.00;10339869;28;1946;-44
2022/08/15 19:11:41;;;;;;;;;;;;;;;23.77;38.13;95016.91;10328288;28;1861;-43
2022/08/15 19:16:47;;;;;;;;;;;;;;;23.72;37.98;95046.94;10337853;28;1801;-49
2022/08/15 19:21:52;;;;;;;;;;;;;;;23.59;38.19;95062.97;10319663;28;1765;-43
2022/08/15 19:26:53;;;;;;;;;;;;;;;23.46;39.14;95069.94;10341136;28;1914;-42
2022/08/15 19:32:05;;;;;;;;;;;;;;;23.57;39.38;95070.44;10343142;28;1809;-44
2022/08/15 19:37:12;;;;;;;;;;;;;;;23.60;40.08;95072.44;10352235;28;1765;-43
2022/08/15 19:42:12;;;;;;;;;;;;;;;23.64;40.11;95079.47;10342447;28;1604;-45
2022/08/15 19:47:16;;;;;;;;;;;;;;;23.67;40.31;95081.50;10340094;28;1919;-43
2022/08/15 19:52:21;;;;;;;;;;;;;;;23.67;40.57;95080.72;10327288;28;1789;-43
2022/08/15 19:57:48;;;;;;;;;;;;;;;23.69;40.57;95084.63;10335490;28;1776;-42
2022/08/15 20:03:04;;;;;;;;;;;;;;;23.71;40.54;95090.38;10313105;28;1860;-46
2022/08/15 20:08:20;;;;;;;;;;;;;;;23.60;40.69;95086.47;10333740;28;1897;-43
2022/08/15 20:13:29;;;;;;;;;;;;;;;23.57;40.54;95081.81;10331554;28;1993;-42
2022/08/15 20:18:32;;;;;;;;;;;;;;;23.53;40.89;95101.22;10334714;28;1904;-43
2022/08/15 20:23:53;;;;;;;;;;;;;;;23.56;40.64;95101.38;10314374;28;1887;-42
2022/08/15 20:28:57;;;;;;;;;;;;;;;23.58;40.79;95109.78;10337756;28;1838;-41
2022/08/15 20:33:59;;;;;;;;;;;;;;;23.55;41.01;95107.00;10337054;28;1912;-41
2022/08/15 20:39:00;;;;;;;;;;;;;;;23.59;40.79;95111.38;10336944;28;1809;-42
2022/08/15 20:44:08;;;;;;;;;;;;;;;23.63;40.84;95114.19;10336336;28;1968;-42
2022/08/15 20:49:18;;;;;;;;;;;;;;;23.65;40.79;95104.06;10338111;28;1734;-43
2022/08/15 20:54:19;;;;;;;;;;;;;;;23.69;40.88;95116.38;10324865;28;2191;-42
2022/08/15 20:59:28;;;;;;;;;;;;;;;23.71;41.01;95129.28;10335880;28;1805;-41
2022/08/15 21:04:30;;;;;;;;;;;;;;;23.74;40.92;95132.09;10334471;28;1891;-45
2022/08/15 21:09:42;;;;;;;;;;;;;;;23.77;41.00;95138.63;10333834;28;1852;-43
2022/08/15 21:14:42;;;;;;;;;;;;;;;23.76;41.02;95140.50;10331119;28;1836;-42
2022/08/15 21:19:53;;;;;;;;;;;;;;;23.82;40.93;95147.22;10333224;28;1808;-43
2022/08/15 21:24:54;;;;;;;;;;;;;;;23.81;41.14;95150.97;10329207;28;1914;-42
2022/08/15 21:30:15;;;;;;;;;;;;;;;23.82;41.17;95162.31;10332158;28;2095;-43
2022/08/15 21:35:17;;;;;;;;;;;;;;;23.82;41.14;95168.38;10329223;28;1801;-45
2022/08/15 21:40:36;;;;;;;;;;;;;;;23.81;41.13;95164.19;10331898;28;1976;-44
2022/08/15 21:45:40;;;;;;;;;;;;;;;23.82;41.01;95173.66;10338316;28;1969;-42
2022/08/15 21:50:41;;;;;;;;;;;;;;;23.87;41.27;95178.84;10336973;28;1916;-41
2022/08/15 21:55:42;;;;;;;;;;;;;;;23.94;41.01;95186.34;10335768;28;1969;-41
2022/08/15 22:00:43;;;;;;;;;;;;;;;23.93;40.88;95188.19;10341720;28;1770;-41
2022/08/15 22:05:45;;;;;;;;;;;;;;;23.95;40.94;95201.91;10342428;28;1935;-41
2022/08/15 22:10:47;;;;;;;;;;;;;;;23.94;41.01;95202.22;10327489;28;2009;-42
2022/08/15 22:15:47;;;;;;;;;;;;;;;23.96;41.01;95200.03;10341583;28;2190;-42
2022/08/15 22:20:48;;;;;;;;;;;;;;;23.97;40.65;95202.38;10341822;28;1892;-42
2022/08/15 22:25:49;;;;;;;;;;;;;;;23.96;40.87;95203.47;10321735;28;2230;-47
2022/08/15 22:30:49;;;;;;;;;;;;;;;23.98;41.04;95197.88;10343176;28;2209;-41
2022/08/15 22:35:49;;;;;;;;;;;;;;;23.96;40.87;95195.53;10338327;28;1810;-41
2022/08/15 22:40:50;;;;;;;;;;;;;;;23.97;41.07;95191.78;10342950;28;1828;-40
2022/08/15 22:45:52;;;;;;;;;;;;;;;24.02;41.05;95193.50;10341188;28;1879;-41
2022/08/15 22:51:05;;;;;;;;;;;;;;;24.04;41.29;95186.84;10343577;28;1778;-42
2022/08/15 22:56:05;;;;;;;;;;;;;;;24.02;41.48;95194.31;10342028;28;1930;-41
2022/08/15 23:01:06;;;;;;;;;;;;;;;24.04;41.43;95201.97;10366478;28;1911;-43
2022/08/15 23:06:07;;;;;;;;;;;;;;;24.02;41.65;95191.66;10323274;28;1895;-42
2022/08/15 23:11:24;;;;;;;;;;;;;;;24.03;41.90;95187.94;10338066;28;1857;-45
2022/08/15 23:16:37;;;;;;;;;;;;;;;24.00;41.87;95185.88;10357985;28;1885;-42
2022/08/15 23:21:38;;;;;;;;;;;;;;;24.04;41.95;95189.50;10338065;28;1822;-42
2022/08/15 23:26:39;;;;;;;;;;;;;;;24.04;41.87;95176.25;10339389;28;1911;-42
2022/08/15 23:31:40;;;;;;;;;;;;;;;24.03;42.32;95180.00;10339102;28;1825;-42
2022/08/15 23:36:46;;;;;;;;;;;;;;;24.01;42.50;95179.50;10342119;28;1871;-41
2022/08/15 23:41:56;;;;;;;;;;;;;;;24.02;42.58;95182.91;10339700;28;1840;-41
2022/08/15 23:46:56;;;;;;;;;;;;;;;24.03;42.39;95180.00;10316800;28;1947;-41
2022/08/15 23:51:57;;;;;;;;;;;;;;;24.08;42.45;95182.50;10334163;28;1849;-42
2022/08/15 23:56:58;;;;;;;;;;;;;;;24.11;42.67;95179.22;10335005;28;1865;-44
